»·PEaware :: EMPIRE24 KLSV-KLSV

EMPIRE24 :: KLSV-KLSV

FLIGHT INFORMATION

Flight Status: Arrived
Operator: Unknown
More flights by this operator :: More flights under this callsign
Pilot: Anonymous 3903 (3903)
Aircraft: MCDONNELL-DOUGLAS FA-18 HORNET
(F18)
More flights by this aircraft type
Origin: KLSV Nellis AFB
United States
Destination: KLSV Nellis AFB
United States
More flights between these airports :: More routes between these airports
Route: +
File this flight plan on PilotEdge
Remarks:
Altitude:
(Current/Filed)
0ft
Speed:
(Current/Filed)
0kts
Departed: 15-Apr-17 02:10 PM
Arrived: 15-Apr-17 02:52 PM
Distance/Time
Traveled:
0nm/0:41
Distance/Time
To Go:
Arrived

Flight Plot

Page will automatically refresh every two minutes.


Map Options




Map Legend


Flown Route
Filed Route
Departure Airport
Arrival Airport
Navaid (VOR, NDB)
Fix

Horizontal Profiles

Position Reports

Time Latitude Longitude Heading Altitude Ground
Speed
15-Apr-17 13:57 36.231589 -115.045557 42 1878ft 0kts
15-Apr-17 13:58 36.231589 -115.045557 42 1878ft 0kts
15-Apr-17 13:59 36.231589 -115.045556 42 1878ft 0kts
15-Apr-17 14:00 36.231589 -115.045556 42 1878ft 0kts
15-Apr-17 14:01 36.231590 -115.045556 42 1878ft 0kts
15-Apr-17 14:02 36.231590 -115.045555 42 1878ft 0kts
15-Apr-17 14:03 36.231590 -115.045555 42 1878ft 0kts
15-Apr-17 14:04 36.231591 -115.045554 42 1878ft 0kts
15-Apr-17 14:05 36.231591 -115.045554 42 1878ft 0kts
15-Apr-17 14:06 36.230298 -115.045092 221 1878ft 16kts
15-Apr-17 14:07 36.227381 -115.047426 130 1878ft 0kts
15-Apr-17 14:08 36.227380 -115.047424 130 1878ft 0kts
15-Apr-17 14:09 36.227379 -115.047423 130 1878ft 0kts
15-Apr-17 14:10 36.226978 -115.046496 41 1878ft 0kts
15-Apr-17 14:11 36.239921 -115.032564 41 2287ft 235kts
15-Apr-17 14:12 36.302662 -114.988964 350 3819ft 272kts
15-Apr-17 14:13 36.342214 -115.057956 281 6409ft 278kts
15-Apr-17 14:14 36.355744 -115.154209 280 7662ft 289kts
15-Apr-17 14:15 36.364980 -115.251396 251 9295ft 275kts
15-Apr-17 14:16 36.313303 -115.328513 246 11005ft 300kts
15-Apr-17 14:17 36.321730 -115.427667 278 13163ft 290kts
15-Apr-17 14:18 36.364365 -115.498079 354 15194ft 284kts
15-Apr-17 14:19 36.441583 -115.496958 356 17227ft 275kts
15-Apr-17 14:20 36.525936 -115.493551 355 17538ft 332kts
15-Apr-17 14:21 36.626489 -115.485738 6 16210ft 410kts
15-Apr-17 14:22 36.746594 -115.471834 356 15777ft 442kts
15-Apr-17 14:23 36.867909 -115.481298 336 15826ft 427kts
15-Apr-17 14:24 36.955992 -115.574989 295 15047ft 419kts
15-Apr-17 14:25 36.966006 -115.712663 252 15030ft 399kts
15-Apr-17 14:26 36.895250 -115.813224 207 15034ft 395kts
15-Apr-17 14:27 36.787705 -115.817574 161 15029ft 402kts
15-Apr-17 14:28 36.702799 -115.697152 114 16470ft 589kts
15-Apr-17 14:29 36.708759 -115.636778 346 5804ft 429kts
15-Apr-17 14:30 36.722545 -115.610303 76 17454ft 382kts
15-Apr-17 14:31 36.818156 -115.504791 5 17472ft 560kts
15-Apr-17 14:32 36.954770 -115.574908 302 17470ft 551kts
15-Apr-17 14:33 36.977883 -115.757235 265 17989ft 525kts
15-Apr-17 14:34 36.896890 -115.868554 204 16578ft 491kts
15-Apr-17 14:35 36.782277 -115.831374 135 15670ft 501kts
15-Apr-17 14:36 36.690408 -115.702984 125 15509ft 492kts
15-Apr-17 14:37 36.615913 -115.562123 116 15538ft 485kts
15-Apr-17 14:38 36.627190 -115.400851 70 15556ft 480kts
15-Apr-17 14:39 36.669932 -115.242663 70 15536ft 479kts
15-Apr-17 14:40 36.712348 -115.085614 71 15531ft 477kts
15-Apr-17 14:41 36.699123 -114.933830 111 13504ft 416kts
15-Apr-17 14:42 36.662903 -114.810501 111 11430ft 339kts
15-Apr-17 14:43 36.636430 -114.727017 110 9583ft 291kts
15-Apr-17 14:44 36.600803 -114.624452 135 6552ft 249kts
15-Apr-17 14:45 36.542917 -114.642549 246 5104ft 263kts
15-Apr-17 14:46 36.516501 -114.723599 246 5013ft 236kts
15-Apr-17 14:47 36.475675 -114.785415 214 4880ft 232kts
15-Apr-17 14:48 36.419904 -114.833001 221 5070ft 256kts
15-Apr-17 14:49 36.375364 -114.879612 222 4995ft 213kts
15-Apr-17 14:51 36.319470 -114.941118 220 4000ft 237kts
15-Apr-17 14:51 36.288022 -114.975468 220 3043ft 174kts
15-Apr-17 14:53 36.248452 -115.018631 221 1972ft 137kts
15-Apr-17 14:53 36.232800 -115.035720 203 1878ft 17kts
15-Apr-17 14:55 36.231961 -115.034895 131 1878ft 5kts

Navigation Log

Ident Type
1. KLSV Airport
2. KLSV Airport